Dutch Harbor, AK

11:16 AM AKST on November 17, 2017 (GMT -0900)
Unalaska

Weather History for PADU - January, 2012

Change the Weather History Date:

Saturday, January 21, 2012

  Actual Average Record
Temperature  
Mean Temperature 24 °F -  
Max Temperature 28 °F 37 °F 46 °F (1997)
Min Temperature 21 °F 27 °F 9 °F (1986)
Degree Days  
Heating Degree Days 40    
Moisture  
Dew Point 18 °F    
Average Humidity 75    
Maximum Humidity 86    
Minimum Humidity 63    
Precipitation  
Precipitation 0.01 in - - ()
Sea Level Pressure  
Sea Level Pressure 29.41 in    
Wind  
Wind Speed 18 mph (NNW)    
Max Wind Speed 34 mph    
Max Gust Speed 52 mph    
Visibility 4 miles    
Events Fog , Snow    
Averages and records for this station are not official NWS values.
T = Trace of Precipitation, MM = Missing Value Source: NWS Daily Summary

Daily Weather History Graph

Daily Weather History Graph

Search for Another Location

Airport or City:

Trip Planner

Search our weather history database for the weather conditions in past years. The results will help you decide how hot, cold, wet, or windy it might be!

Date:

Astronomy

Jan. 21, 2012 Rise Set
Actual Time 10:09 AM AKST 6:25 PM AKST
Civil Twilight 9:29 AM AKST 7:06 PM AKST
Nautical Twilight 8:45 AM AKST 7:50 PM AKST
Astronomical Twilight 8:03 AM AKST 8:32 PM AKST
Moon 8:57 AM AKST (1/21) 5:11 PM AKST (1/21)
Length of Visible Light 9h 37m
Length of Day
8h 16m
Waning Crescent, 2% of the Moon is Illuminated
Jan 21
Waning Crescent
Jan 22
New
Jan 30
First Quarter
Feb 7
Full
Feb 14
Last Quarter

Hourly Weather History & Observations

Time (AKST) Temp. Windchill Dew Point Humidity Pressure Visibility Wind Dir Wind Speed Gust Speed Precip Events Conditions
12:56 AM 28.0 °F 20.8 °F 19.0 °F 69% 29.48 in 9.0 mi Variable 6.9 mph - 0.00 in Snow Light Snow
1:56 AM 28.0 °F - 17.1 °F 63% 29.47 in 9.0 mi Calm Calm - 0.00 in Snow Light Snow
2:15 AM 28.4 °F 17.0 °F 21.2 °F 74% 29.45 in 6.0 mi North 15.0 mph 25.3 mph 0.00 in Snow Light Snow
2:22 AM 28.4 °F 15.8 °F 21.2 °F 74% 29.45 in 4.0 mi North 18.4 mph 25.3 mph 0.00 in Snow Light Snow
2:54 AM 26.6 °F 20.0 °F 21.2 °F 80% 29.45 in 5.0 mi Variable 5.8 mph 19.6 mph 0.00 in Snow Light Snow
2:56 AM 27.0 °F 17.3 °F 21.9 °F 81% 29.47 in 5.0 mi ENE 10.4 mph 19.6 mph 0.00 in Snow Light Snow
3:56 AM 27.0 °F 13.2 °F 19.9 °F 75% 29.46 in 9.0 mi NNW 20.7 mph - 0.01 in Snow Light Snow
4:29 AM 26.6 °F 14.3 °F 19.4 °F 74% 29.44 in 9.0 mi NNW 16.1 mph - 0.00 in Snow Light Snow
4:56 AM 27.0 °F 14.7 °F 18.0 °F 69% 29.46 in 10.0 mi NNW 16.1 mph - 0.00 in   Overcast
5:35 AM 26.6 °F 15.7 °F 17.6 °F 69% 29.44 in 9.0 mi NNW 12.7 mph - 0.00 in Snow Light Snow
5:56 AM 26.1 °F 14.5 °F 18.0 °F 71% 29.45 in 8.0 mi NNW 13.8 mph - 0.00 in Snow Light Snow
6:56 AM 25.0 °F 13.1 °F 18.0 °F 75% 29.44 in 9.0 mi WNW 13.8 mph - 0.00 in Snow Light Snow
7:56 AM 24.1 °F 12.0 °F 17.1 °F 75% 29.44 in 8.0 mi NNW 13.8 mph - 0.00 in Snow Light Snow
8:22 AM 24.8 °F 12.4 °F 17.6 °F 74% 29.42 in 3.0 mi NNW 15.0 mph - 0.00 in Snow Light Snow
8:56 AM 25.0 °F 10.9 °F 19.0 °F 78% 29.44 in 5.0 mi NW 19.6 mph 25.3 mph 0.00 in Snow Light Snow
8:59 AM 24.8 °F 11.5 °F 19.4 °F 80% 29.42 in 4.0 mi NW 17.3 mph 24.2 mph 0.00 in Snow Light Snow
9:31 AM 24.8 °F 11.1 °F 17.6 °F 74% 29.42 in 8.0 mi NW 18.4 mph - 0.00 in Snow Light Snow
9:56 AM 25.0 °F 9.9 °F 18.0 °F 75% 29.43 in 6.0 mi NNW 23.0 mph 26.5 mph 0.00 in Snow Light Snow
10:56 AM 26.1 °F 11.0 °F 18.0 °F 71% 29.42 in 6.0 mi NNW 24.2 mph 31.1 mph 0.00 in Snow Light Snow
11:56 AM 27.0 °F 12.8 °F 19.0 °F 72% 29.43 in 6.0 mi NNW 21.9 mph 35.7 mph 0.00 in Snow Light Snow
12:10 PM 26.6 °F 12.4 °F 17.6 °F 69% 29.41 in 2.0 mi North 21.9 mph 40.3 mph 0.00 in Snow Light Snow
12:27 PM 26.6 °F 10.8 °F 19.4 °F 74% 29.40 in 1.8 mi NNW 27.6 mph 46.0 mph 0.00 in Snow Light Snow
12:33 PM 26.6 °F 13.8 °F 19.4 °F 74% 29.40 in 2.0 mi North 17.3 mph 34.5 mph 0.00 in Snow Light Snow
12:37 PM 26.6 °F 10.0 °F 19.4 °F 74% 29.39 in 1.2 mi North 31.1 mph 40.3 mph 0.00 in Snow Light Snow
12:43 PM 26.6 °F 10.8 °F 19.4 °F 74% 29.40 in 2.0 mi North 27.6 mph 40.3 mph 0.00 in Snow Light Snow
12:49 PM 26.6 °F 13.1 °F 19.4 °F 74% 29.41 in 2.0 mi North 19.6 mph 36.8 mph 0.00 in Snow Light Snow
12:51 PM 26.6 °F 11.1 °F 19.4 °F 74% - 1.0 mi North 26.5 mph 50.6 mph 0.00 in Snow Light Snow
12:56 PM 26.1 °F 9.8 °F 19.9 °F 78% 29.41 in 1.0 mi NNW 28.8 mph 50.6 mph 0.00 in Snow Light Snow
1:01 PM 26.6 °F 12.4 °F 19.4 °F 74% 29.40 in 2.0 mi NNW 21.9 mph 41.4 mph 0.00 in Snow Light Snow
1:04 PM 26.6 °F 13.4 °F 19.4 °F 74% 29.41 in 1.0 mi North 18.4 mph 51.8 mph 0.00 in Snow Light Snow
1:08 PM 26.6 °F 11.1 °F 19.4 °F 74% 29.40 in 1.8 mi North 26.5 mph 51.8 mph 0.00 in Snow Light Snow
1:22 PM 26.6 °F 12.4 °F 19.4 °F 74% 29.40 in 2.0 mi NNW 21.9 mph 44.9 mph 0.00 in Snow Light Snow
1:38 PM 26.6 °F 11.7 °F 19.4 °F 74% 29.40 in 8.0 mi NNW 24.2 mph 39.1 mph 0.00 in Snow Light Snow
1:56 PM 27.0 °F 10.5 °F 18.0 °F 69% 29.39 in 8.0 mi North 31.1 mph 41.4 mph 0.00 in Snow Light Snow
2:32 PM 26.6 °F 13.1 °F 17.6 °F 69% 29.39 in 2.5 mi NNE 19.6 mph 41.4 mph 0.00 in Snow Light Snow
2:41 PM 26.6 °F 9.3 °F 17.6 °F 69% 29.37 in 3.0 mi NNW 34.5 mph 41.4 mph 0.00 in Snow Light Snow
2:53 PM 26.6 °F 11.7 °F 17.6 °F 69% 29.38 in 8.0 mi NNE 24.2 mph 43.7 mph 0.00 in Snow Light Snow
2:56 PM 27.0 °F 12.5 °F 18.0 °F 69% 29.41 in 8.0 mi NNW 23.0 mph 43.7 mph 0.00 in Snow Light Snow
3:18 PM 26.6 °F 12.4 °F 17.6 °F 69% 29.39 in 4.0 mi NE 21.9 mph 39.1 mph 0.00 in Snow Light Snow
3:36 PM 26.6 °F 12.7 °F 15.8 °F 64% 29.38 in 8.0 mi North 20.7 mph 43.7 mph 0.00 in Snow Light Snow
3:56 PM 27.0 °F 12.5 °F 18.0 °F 69% 29.40 in 8.0 mi NNW 23.0 mph 40.3 mph 0.00 in   Overcast
4:56 PM 27.0 °F 10.8 °F 18.0 °F 69% 29.39 in 8.0 mi NNW 29.9 mph 36.8 mph 0.00 in   Overcast
5:00 PM 26.6 °F 13.8 °F 19.4 °F 74% 29.38 in 2.5 mi NNE 17.3 mph 36.8 mph 0.00 in   Overcast
5:08 PM 26.6 °F 10.6 °F 17.6 °F 69% 29.38 in 1.2 mi North 28.8 mph 38.0 mph 0.00 in Snow Light Snow
5:20 PM 26.6 °F 11.7 °F 19.4 °F 74% 29.38 in 8.0 mi North 24.2 mph 40.3 mph 0.00 in Snow Light Snow
5:35 PM 26.6 °F 15.7 °F 19.4 °F 74% 29.37 in 8.0 mi North 12.7 mph 32.2 mph 0.00 in Snow Light Snow
5:50 PM 24.8 °F 7.6 °F 19.4 °F 80% 29.37 in 3.0 mi NNW 31.1 mph 36.8 mph 0.00 in Snow Light Snow
5:56 PM 26.1 °F 9.8 °F 19.9 °F 78% 29.38 in 3.0 mi NNW 28.8 mph 38.0 mph 0.00 in Snow Light Snow
6:11 PM 26.6 °F 10.0 °F 17.6 °F 69% 29.36 in 5.0 mi NNW 31.1 mph 41.4 mph 0.00 in Snow Light Snow
6:56 PM 24.1 °F - 15.1 °F 69% 29.39 in 7.0 mi North - - 0.00 in Snow Blowing Snow
7:16 PM 24.8 °F - 15.8 °F 69% 29.38 in 2.5 mi North - - N/A Snow Blowing Snow
7:29 PM 24.8 °F - 15.8 °F 69% 29.38 in 4.0 mi North - - 0.00 in Snow Light Snow
7:41 PM 23.0 °F - 15.8 °F 74% 29.38 in 6.0 mi North - - 0.00 in Snow Light Snow
7:47 PM 24.8 °F 9.0 °F 17.6 °F 74% 29.39 in 2.5 mi North 25.3 mph 33.4 mph 0.00 in Snow Light Snow
7:50 PM 23.0 °F 6.0 °F 17.6 °F 80% 29.38 in 1.2 mi NW 27.6 mph 33.4 mph 0.00 in Snow Light Snow
7:54 PM 23.0 °F 6.9 °F 17.6 °F 80% 29.39 in 0.8 mi North 24.2 mph 35.7 mph 0.00 in Snow Light Snow
7:56 PM 23.0 °F - 18.0 °F 81% 29.40 in 0.8 mi North - - 0.00 in Snow Light Snow
8:04 PM 21.2 °F - 17.6 °F 86% 29.38 in 1.0 mi North - - 0.00 in Snow Light Snow
8:11 PM 21.2 °F - 15.8 °F 80% 29.37 in 1.5 mi North - - 0.00 in Snow Light Snow
8:25 PM 21.2 °F 3.3 °F 15.8 °F 80% 29.38 in 1.0 mi NNW 28.8 mph 38.0 mph 0.00 in Snow Light Snow
8:36 PM 21.2 °F - 17.6 °F 86% 29.38 in 0.5 mi North - - 0.00 in Fog , Snow Snow
8:56 PM 21.0 °F - 16.0 °F 81% 29.42 in 0.8 mi North - - 0.00 in Snow Light Snow
9:08 PM 21.2 °F 5.2 °F 17.6 °F 86% 29.39 in 0.5 mi North 21.9 mph 35.7 mph 0.00 in Fog , Snow Snow
9:17 PM 21.2 °F - 15.8 °F 80% 29.38 in 1.0 mi North - - 0.00 in Snow Light Snow
9:22 PM 21.2 °F 8.9 °F 15.8 °F 80% 29.40 in 1.5 mi North 12.7 mph 36.8 mph 0.00 in Snow Light Snow
9:29 PM 21.2 °F 4.2 °F 14.0 °F 74% 29.40 in 3.0 mi North 25.3 mph 36.8 mph 0.00 in Snow Light Snow
9:51 PM 21.2 °F - 14.0 °F 74% 29.41 in 2.5 mi North - - 0.00 in   Overcast
9:56 PM 21.0 °F - 15.1 °F 78% 29.42 in 3.0 mi North - - 0.00 in   Overcast
10:05 PM 21.2 °F - 15.8 °F 80% 29.39 in 8.0 mi North - - 0.00 in   Overcast
10:14 PM 21.2 °F - 15.8 °F 80% 29.40 in 4.0 mi North - - 0.00 in Snow Light Snow
10:28 PM 21.2 °F 4.5 °F 12.2 °F 68% 29.40 in 9.0 mi NNW 24.2 mph 32.2 mph 0.00 in   Overcast
10:35 PM 21.2 °F - 14.0 °F 74% 29.39 in 3.0 mi North - - 0.00 in Snow Light Snow
10:44 PM 21.2 °F - 12.2 °F 68% 29.40 in 5.0 mi North - - 0.00 in Snow Light Snow
10:56 PM 21.9 °F 3.7 °F 15.1 °F 75% 29.42 in 5.0 mi NNW 31.1 mph 38.0 mph 0.00 in Snow Light Snow
11:05 PM 21.2 °F - 15.8 °F 80% 29.40 in 2.5 mi North - - 0.00 in   Overcast
11:30 PM 21.2 °F - 15.8 °F 80% 29.40 in 1.0 mi North - - 0.00 in   Overcast
11:47 PM 21.2 °F - 15.8 °F 80% 29.39 in 1.5 mi North - - 0.00 in Snow Light Snow
11:50 PM 21.2 °F 3.0 °F 15.8 °F 80% 29.40 in 1.0 mi North 29.9 mph 40.3 mph 0.00 in Snow Light Snow
11:54 PM 21.2 °F 4.2 °F 15.8 °F 80% 29.41 in 0.8 mi NNW 25.3 mph 40.3 mph 0.00 in Snow Light Snow
11:56 PM 21.0 °F - 16.0 °F 81% 29.42 in 0.8 mi North - - 0.00 in Snow Light Snow
11:59 PM 21.2 °F 4.5 °F 15.8 °F 80% 29.40 in 1.0 mi NNW 24.2 mph 40.3 mph 0.00 in Snow Light Snow